TFM - Tactical Decision Aid
ID: Runway Winds: CIG/VIS Threshold:

KMEM - Memphis Intl, TN, US

Updated at: 0745 UTC 25 Apr 2019
Latest TAF at: 0520 UTC 25 Apr 2019

TAF Board

Time0654Z 25/08Z 25/09Z 25/10Z 25/11Z 25/12Z 25/13Z 25/14Z 25/15Z 25/16Z 25/17Z 25/18Z 25/19Z 25/20Z>>
Type OBS PRVL PRVL PRVL PRVL PRVL PRVL PRVL
  [TEMP]  
PRVL
  [TEMP]  
PRVL PRVL PRVL PRVL PRVL
VIS 10 >6 >6 >6 >6 >6 >6 >6
  [2]  
>6
  [2]  
>6 >6 >6 >6 >6
CIG 250 100 100 60 60 60 15 15
  [9]  
15
  [9]  
20 20 20 35 35
Cover OVC OVC OVC OVC OVC OVC OVC OVC
  [OVC]  
OVC
  [OVC]  
OVC OVC OVC BKN BKN
FltCat VFR VFR VFR VFR VFR VFR MVFR MVFR
  [IFR]  
MVFR
  [IFR]  
MVFR MVFR MVFR VFR VFR
WX -- VCSH VCSH VCSH VCSH VCSH VCTS VCTS
  [TSRA]  
VCTS
  [TSRA]  
VCSH VCSH VCSH VCTS VCTS
WDir 160 VRB VRB 170 170 170 180 180
[180]
180
[180]
200 200 200 250 250
WSpd 4 6 6 10 10 10 12 12
  [12]  
12
  [12]  
15 15 15 15 15
WGst -- -- -- -- -- -- 18 18
  [18]  
18
  [18]  
22 22 22 22 22

TDA Impact Legend

  None Marginal Slight Moderate High
Visibility (sm) >5 3≤X≤5 1≤X<3 0.5≤X<1 <0.5
Ceiling (100 ft) >30 10≤X≤30 4≤X<10 2≤X<4 <2
Wind Speed (kt) <15 15≤X<25 25≤X<30 ≥30
Wind Gust (kt) <15 15≤X<25 25≤X<35 ≥35
Weather No Wx Reported VCTS -TS,-FZRA TS,FZRA +TS,+FZRA
TAF
KMEM 250520Z 2506/2612 VRB06KT P6SM VCSH SCT060 OVC100
  FM251000 17010KT P6SM VCSH BKN060 OVC100
  FM251300 18012G18KT P6SM VCTS OVC015CB
  TEMPO 2514/2516 2SM TSRA OVC009CB
  FM251600 20015G22KT P6SM VCSH BKN020 OVC040
  FM251900 25015G22KT P6SM VCTS BKN035CB BKN060 BKN120
  FM260100 30010KT P6SM VCSH OVC025
  FM260300 33008KT P6SM OVC035


METAR
KMEM 250654Z 16004KT 10SM FEW080 OVC250 19/16 A2980 RMK AO2 SLP087 T01940156 $
KMEM 250554Z VRB04KT 10SM BKN080 OVC200 21/15 A2983 RMK AO2 SLP096 60000 T02060150 10239 20200 402670161 58012 $
KMEM 250454Z 19005KT 10SM FEW060 BKN200 21/16 A2985 RMK AO2 SLP104 T02060156 $

Radar Display
Forecast Discussion